<?xml version="1.0" encoding="UTF-8" standalone="no" ?>
<gpx xmlns="http://www.topografix.com/GPX/1/1" xmlns:xsi="http://www.w3.org/2001/XMLSchema-instance" xsi:schemaLocation="http://www.topografix.com/GPX/1/1 http://www.topografix.com/GPX/1/1/gpx.xsd" version="1.1" creator="VisuGPX - https://www.visugpx.com">
  <metadata>
    <name>Les Glières 01</name>
    <desc><![CDATA[projet 01]]></desc>
  </metadata>
  <trk>
    <name><![CDATA[Les Glières 01_4]]></name>
    <trkseg>
      <trkpt lat="46.07635" lon="6.40726">
        <ele>175.8</ele>
        <time>2020-09-30T08:59:03Z</time>
      </trkpt>
      <trkpt lat="46.07649" lon="6.40757">
        <ele>175.6</ele>
        <time>2020-09-30T08:58:59Z</time>
      </trkpt>
      <trkpt lat="46.0766" lon="6.40781">
        <ele>176.4</ele>
        <time>2020-09-30T08:58:55Z</time>
      </trkpt>
      <trkpt lat="46.07667" lon="6.40794">
        <ele>178.4</ele>
        <time>2020-09-30T08:58:51Z</time>
      </trkpt>
      <trkpt lat="46.07677" lon="6.40819">
        <ele>177.8</ele>
        <time>2020-09-30T08:58:47Z</time>
      </trkpt>
      <trkpt lat="46.07688" lon="6.40843">
        <ele>178.2</ele>
        <time>2020-09-30T08:58:43Z</time>
      </trkpt>
      <trkpt lat="46.07702" lon="6.40857">
        <ele>178.8</ele>
        <time>2020-09-30T08:58:39Z</time>
      </trkpt>
      <trkpt lat="46.07723" lon="6.40839">
        <ele>178</ele>
        <time>2020-09-30T08:58:35Z</time>
      </trkpt>
      <trkpt lat="46.07745" lon="6.40818">
        <ele>177</ele>
        <time>2020-09-30T08:58:31Z</time>
      </trkpt>
      <trkpt lat="46.07767" lon="6.40795">
        <ele>176.4</ele>
        <time>2020-09-30T08:58:27Z</time>
      </trkpt>
      <trkpt lat="46.0779" lon="6.4077">
        <ele>176</ele>
        <time>2020-09-30T08:58:23Z</time>
      </trkpt>
      <trkpt lat="46.07815" lon="6.40746">
        <ele>176</ele>
        <time>2020-09-30T08:58:19Z</time>
      </trkpt>
      <trkpt lat="46.07838" lon="6.40725">
        <ele>175.4</ele>
        <time>2020-09-30T08:58:15Z</time>
      </trkpt>
      <trkpt lat="46.07861" lon="6.40705">
        <ele>176</ele>
        <time>2020-09-30T08:58:11Z</time>
      </trkpt>
      <trkpt lat="46.0788" lon="6.40683">
        <ele>176.6</ele>
        <time>2020-09-30T08:58:07Z</time>
      </trkpt>
      <trkpt lat="46.07902" lon="6.40663">
        <ele>176.4</ele>
        <time>2020-09-30T08:58:03Z</time>
      </trkpt>
      <trkpt lat="46.07924" lon="6.40647">
        <ele>175.6</ele>
        <time>2020-09-30T08:57:59Z</time>
      </trkpt>
      <trkpt lat="46.07946" lon="6.40627">
        <ele>175.2</ele>
        <time>2020-09-30T08:57:55Z</time>
      </trkpt>
      <trkpt lat="46.07971" lon="6.40604">
        <ele>174.2</ele>
        <time>2020-09-30T08:57:51Z</time>
      </trkpt>
      <trkpt lat="46.07996" lon="6.40581">
        <ele>172.6</ele>
        <time>2020-09-30T08:57:47Z</time>
      </trkpt>
      <trkpt lat="46.08021" lon="6.40557">
        <ele>171</ele>
        <time>2020-09-30T08:57:43Z</time>
      </trkpt>
      <trkpt lat="46.08047" lon="6.40535">
        <ele>171</ele>
        <time>2020-09-30T08:57:39Z</time>
      </trkpt>
      <trkpt lat="46.08073" lon="6.40512">
        <ele>171</ele>
        <time>2020-09-30T08:57:35Z</time>
      </trkpt>
      <trkpt lat="46.08099" lon="6.4049">
        <ele>172.4</ele>
        <time>2020-09-30T08:57:31Z</time>
      </trkpt>
      <trkpt lat="46.08123" lon="6.40468">
        <ele>171.8</ele>
        <time>2020-09-30T08:57:27Z</time>
      </trkpt>
      <trkpt lat="46.08147" lon="6.40446">
        <ele>172</ele>
        <time>2020-09-30T08:57:23Z</time>
      </trkpt>
      <trkpt lat="46.08171" lon="6.40425">
        <ele>171.8</ele>
        <time>2020-09-30T08:57:19Z</time>
      </trkpt>
      <trkpt lat="46.08191" lon="6.404">
        <ele>172.4</ele>
        <time>2020-09-30T08:57:15Z</time>
      </trkpt>
      <trkpt lat="46.08211" lon="6.40391">
        <ele>173.6</ele>
        <time>2020-09-30T08:57:11Z</time>
      </trkpt>
      <trkpt lat="46.08231" lon="6.40374">
        <ele>174</ele>
        <time>2020-09-30T08:57:07Z</time>
      </trkpt>
      <trkpt lat="46.08258" lon="6.40349">
        <ele>173</ele>
        <time>2020-09-30T08:57:03Z</time>
      </trkpt>
      <trkpt lat="46.08286" lon="6.40325">
        <ele>172.4</ele>
        <time>2020-09-30T08:56:59Z</time>
      </trkpt>
      <trkpt lat="46.08314" lon="6.40301">
        <ele>172.6</ele>
        <time>2020-09-30T08:56:55Z</time>
      </trkpt>
      <trkpt lat="46.08337" lon="6.40278">
        <ele>173.2</ele>
        <time>2020-09-30T08:56:51Z</time>
      </trkpt>
      <trkpt lat="46.08358" lon="6.4026">
        <ele>173.4</ele>
        <time>2020-09-30T08:56:47Z</time>
      </trkpt>
      <trkpt lat="46.08376" lon="6.40245">
        <ele>173.8</ele>
        <time>2020-09-30T08:56:43Z</time>
      </trkpt>
      <trkpt lat="46.08393" lon="6.40232">
        <ele>174.4</ele>
        <time>2020-09-30T08:56:39Z</time>
      </trkpt>
      <trkpt lat="46.08405" lon="6.4022">
        <ele>174.4</ele>
        <time>2020-09-30T08:56:35Z</time>
      </trkpt>
      <trkpt lat="46.0842" lon="6.40209">
        <ele>173.2</ele>
        <time>2020-09-30T08:56:31Z</time>
      </trkpt>
      <trkpt lat="46.08442" lon="6.40188">
        <ele>173</ele>
        <time>2020-09-30T08:56:27Z</time>
      </trkpt>
      <trkpt lat="46.08468" lon="6.40166">
        <ele>171.6</ele>
        <time>2020-09-30T08:56:23Z</time>
      </trkpt>
      <trkpt lat="46.08495" lon="6.40142">
        <ele>172</ele>
        <time>2020-09-30T08:56:19Z</time>
      </trkpt>
      <trkpt lat="46.08522" lon="6.40119">
        <ele>171.2</ele>
        <time>2020-09-30T08:56:15Z</time>
      </trkpt>
      <trkpt lat="46.08543" lon="6.401">
        <ele>173</ele>
        <time>2020-09-30T08:56:11Z</time>
      </trkpt>
      <trkpt lat="46.08566" lon="6.4008">
        <ele>172.8</ele>
        <time>2020-09-30T08:56:07Z</time>
      </trkpt>
      <trkpt lat="46.08589" lon="6.40057">
        <ele>172.2</ele>
        <time>2020-09-30T08:56:03Z</time>
      </trkpt>
      <trkpt lat="46.08617" lon="6.40028">
        <ele>172.6</ele>
        <time>2020-09-30T08:55:59Z</time>
      </trkpt>
      <trkpt lat="46.08643" lon="6.39992">
        <ele>170.2</ele>
        <time>2020-09-30T08:55:55Z</time>
      </trkpt>
      <trkpt lat="46.08665" lon="6.39944">
        <ele>169.4</ele>
        <time>2020-09-30T08:55:51Z</time>
      </trkpt>
      <trkpt lat="46.08678" lon="6.39886">
        <ele>170.4</ele>
        <time>2020-09-30T08:55:47Z</time>
      </trkpt>
      <trkpt lat="46.0868" lon="6.39826">
        <ele>172.4</ele>
        <time>2020-09-30T08:55:43Z</time>
      </trkpt>
      <trkpt lat="46.08681" lon="6.39766">
        <ele>174.2</ele>
        <time>2020-09-30T08:55:39Z</time>
      </trkpt>
      <trkpt lat="46.08679" lon="6.39706">
        <ele>176.4</ele>
        <time>2020-09-30T08:55:35Z</time>
      </trkpt>
      <trkpt lat="46.08672" lon="6.39647">
        <ele>177.6</ele>
        <time>2020-09-30T08:55:31Z</time>
      </trkpt>
      <trkpt lat="46.08664" lon="6.3959">
        <ele>180.2</ele>
        <time>2020-09-30T08:55:27Z</time>
      </trkpt>
      <trkpt lat="46.08659" lon="6.39537">
        <ele>182.2</ele>
        <time>2020-09-30T08:55:23Z</time>
      </trkpt>
      <trkpt lat="46.0866" lon="6.39487">
        <ele>184.2</ele>
        <time>2020-09-30T08:55:19Z</time>
      </trkpt>
      <trkpt lat="46.08666" lon="6.39442">
        <ele>184.8</ele>
        <time>2020-09-30T08:55:15Z</time>
      </trkpt>
      <trkpt lat="46.08674" lon="6.39399">
        <ele>184.6</ele>
        <time>2020-09-30T08:55:11Z</time>
      </trkpt>
      <trkpt lat="46.08683" lon="6.39356">
        <ele>185</ele>
        <time>2020-09-30T08:55:07Z</time>
      </trkpt>
      <trkpt lat="46.08691" lon="6.39312">
        <ele>185.6</ele>
        <time>2020-09-30T08:55:03Z</time>
      </trkpt>
      <trkpt lat="46.08698" lon="6.39266">
        <ele>184.4</ele>
        <time>2020-09-30T08:54:59Z</time>
      </trkpt>
      <trkpt lat="46.08701" lon="6.39219">
        <ele>184</ele>
        <time>2020-09-30T08:54:55Z</time>
      </trkpt>
      <trkpt lat="46.08702" lon="6.39174">
        <ele>184.8</ele>
        <time>2020-09-30T08:54:51Z</time>
      </trkpt>
      <trkpt lat="46.08704" lon="6.39132">
        <ele>185.4</ele>
        <time>2020-09-30T08:54:47Z</time>
      </trkpt>
      <trkpt lat="46.08701" lon="6.39093">
        <ele>184.6</ele>
        <time>2020-09-30T08:54:43Z</time>
      </trkpt>
      <trkpt lat="46.087" lon="6.39058">
        <ele>185.6</ele>
        <time>2020-09-30T08:54:39Z</time>
      </trkpt>
      <trkpt lat="46.08725" lon="6.3906">
        <ele>185.2</ele>
        <time>2020-09-30T08:54:35Z</time>
      </trkpt>
      <trkpt lat="46.08746" lon="6.39035">
        <ele>186.4</ele>
        <time>2020-09-30T08:54:31Z</time>
      </trkpt>
      <trkpt lat="46.08739" lon="6.38987">
        <ele>187.8</ele>
        <time>2020-09-30T08:54:27Z</time>
      </trkpt>
      <trkpt lat="46.08731" lon="6.38933">
        <ele>185.6</ele>
        <time>2020-09-30T08:54:23Z</time>
      </trkpt>
      <trkpt lat="46.0874" lon="6.38872">
        <ele>185.6</ele>
        <time>2020-09-30T08:54:19Z</time>
      </trkpt>
      <trkpt lat="46.08767" lon="6.38819">
        <ele>187.8</ele>
        <time>2020-09-30T08:54:15Z</time>
      </trkpt>
      <trkpt lat="46.08797" lon="6.3877">
        <ele>189.6</ele>
        <time>2020-09-30T08:54:11Z</time>
      </trkpt>
      <trkpt lat="46.08821" lon="6.38714">
        <ele>191.6</ele>
        <time>2020-09-30T08:54:07Z</time>
      </trkpt>
      <trkpt lat="46.08845" lon="6.3866">
        <ele>193.4</ele>
        <time>2020-09-30T08:54:03Z</time>
      </trkpt>
      <trkpt lat="46.08859" lon="6.38599">
        <ele>197</ele>
        <time>2020-09-30T08:53:59Z</time>
      </trkpt>
      <trkpt lat="46.08868" lon="6.38538">
        <ele>198.4</ele>
        <time>2020-09-30T08:53:55Z</time>
      </trkpt>
      <trkpt lat="46.08878" lon="6.3848">
        <ele>202</ele>
        <time>2020-09-30T08:53:51Z</time>
      </trkpt>
      <trkpt lat="46.08891" lon="6.38426">
        <ele>204.2</ele>
        <time>2020-09-30T08:53:47Z</time>
      </trkpt>
      <trkpt lat="46.08904" lon="6.38377">
        <ele>206.4</ele>
        <time>2020-09-30T08:53:43Z</time>
      </trkpt>
      <trkpt lat="46.0892" lon="6.38332">
        <ele>207.6</ele>
        <time>2020-09-30T08:53:39Z</time>
      </trkpt>
      <trkpt lat="46.08943" lon="6.38296">
        <ele>209.6</ele>
        <time>2020-09-30T08:53:35Z</time>
      </trkpt>
      <trkpt lat="46.0897" lon="6.38262">
        <ele>209.8</ele>
        <time>2020-09-30T08:53:31Z</time>
      </trkpt>
      <trkpt lat="46.08991" lon="6.38223">
        <ele>211.2</ele>
        <time>2020-09-30T08:53:27Z</time>
      </trkpt>
      <trkpt lat="46.09001" lon="6.38178">
        <ele>212.2</ele>
        <time>2020-09-30T08:53:23Z</time>
      </trkpt>
      <trkpt lat="46.09009" lon="6.38125">
        <ele>212.6</ele>
        <time>2020-09-30T08:53:19Z</time>
      </trkpt>
      <trkpt lat="46.09027" lon="6.38069">
        <ele>211.4</ele>
        <time>2020-09-30T08:53:15Z</time>
      </trkpt>
      <trkpt lat="46.09053" lon="6.38021">
        <ele>213.6</ele>
        <time>2020-09-30T08:53:11Z</time>
      </trkpt>
      <trkpt lat="46.0908" lon="6.37972">
        <ele>216.6</ele>
        <time>2020-09-30T08:53:07Z</time>
      </trkpt>
      <trkpt lat="46.09106" lon="6.37924">
        <ele>218.2</ele>
        <time>2020-09-30T08:53:03Z</time>
      </trkpt>
      <trkpt lat="46.09135" lon="6.37879">
        <ele>219.4</ele>
        <time>2020-09-30T08:52:59Z</time>
      </trkpt>
      <trkpt lat="46.09162" lon="6.37832">
        <ele>220.2</ele>
        <time>2020-09-30T08:52:55Z</time>
      </trkpt>
      <trkpt lat="46.09187" lon="6.37784">
        <ele>222.4</ele>
        <time>2020-09-30T08:52:51Z</time>
      </trkpt>
      <trkpt lat="46.09211" lon="6.37736">
        <ele>225.2</ele>
        <time>2020-09-30T08:52:47Z</time>
      </trkpt>
      <trkpt lat="46.09235" lon="6.37688">
        <ele>225.6</ele>
        <time>2020-09-30T08:52:43Z</time>
      </trkpt>
      <trkpt lat="46.0926" lon="6.37642">
        <ele>227.6</ele>
        <time>2020-09-30T08:52:39Z</time>
      </trkpt>
      <trkpt lat="46.09291" lon="6.37602">
        <ele>228.8</ele>
        <time>2020-09-30T08:52:35Z</time>
      </trkpt>
      <trkpt lat="46.09322" lon="6.37564">
        <ele>230.4</ele>
        <time>2020-09-30T08:52:31Z</time>
      </trkpt>
      <trkpt lat="46.09348" lon="6.37517">
        <ele>232.6</ele>
        <time>2020-09-30T08:52:27Z</time>
      </trkpt>
      <trkpt lat="46.0937" lon="6.37464">
        <ele>232.6</ele>
        <time>2020-09-30T08:52:23Z</time>
      </trkpt>
      <trkpt lat="46.09391" lon="6.37412">
        <ele>235.6</ele>
        <time>2020-09-30T08:52:19Z</time>
      </trkpt>
      <trkpt lat="46.0942" lon="6.37369">
        <ele>236</ele>
        <time>2020-09-30T08:52:15Z</time>
      </trkpt>
      <trkpt lat="46.09452" lon="6.37332">
        <ele>238.6</ele>
        <time>2020-09-30T08:52:11Z</time>
      </trkpt>
      <trkpt lat="46.09484" lon="6.37295">
        <ele>238.8</ele>
        <time>2020-09-30T08:52:07Z</time>
      </trkpt>
      <trkpt lat="46.09516" lon="6.37258">
        <ele>242</ele>
        <time>2020-09-30T08:52:03Z</time>
      </trkpt>
      <trkpt lat="46.09552" lon="6.37229">
        <ele>242.8</ele>
        <time>2020-09-30T08:51:59Z</time>
      </trkpt>
      <trkpt lat="46.09589" lon="6.37206">
        <ele>243.6</ele>
        <time>2020-09-30T08:51:55Z</time>
      </trkpt>
      <trkpt lat="46.09625" lon="6.37183">
        <ele>245.4</ele>
        <time>2020-09-30T08:51:51Z</time>
      </trkpt>
      <trkpt lat="46.09662" lon="6.37159">
        <ele>248</ele>
        <time>2020-09-30T08:51:47Z</time>
      </trkpt>
      <trkpt lat="46.09696" lon="6.37125">
        <ele>248.6</ele>
        <time>2020-09-30T08:51:43Z</time>
      </trkpt>
      <trkpt lat="46.09722" lon="6.37078">
        <ele>250.6</ele>
        <time>2020-09-30T08:51:39Z</time>
      </trkpt>
      <trkpt lat="46.09743" lon="6.37029">
        <ele>251.8</ele>
        <time>2020-09-30T08:51:35Z</time>
      </trkpt>
      <trkpt lat="46.09766" lon="6.36979">
        <ele>252.8</ele>
        <time>2020-09-30T08:51:31Z</time>
      </trkpt>
      <trkpt lat="46.09793" lon="6.36934">
        <ele>253.8</ele>
        <time>2020-09-30T08:51:27Z</time>
      </trkpt>
      <trkpt lat="46.09832" lon="6.36925">
        <ele>256</ele>
        <time>2020-09-30T08:51:23Z</time>
      </trkpt>
      <trkpt lat="46.09874" lon="6.36924">
        <ele>258.6</ele>
        <time>2020-09-30T08:51:19Z</time>
      </trkpt>
      <trkpt lat="46.09914" lon="6.36908">
        <ele>261.4</ele>
        <time>2020-09-30T08:51:15Z</time>
      </trkpt>
      <trkpt lat="46.09951" lon="6.36882">
        <ele>262.2</ele>
        <time>2020-09-30T08:51:11Z</time>
      </trkpt>
      <trkpt lat="46.09987" lon="6.36858">
        <ele>263.2</ele>
        <time>2020-09-30T08:51:07Z</time>
      </trkpt>
      <trkpt lat="46.10019" lon="6.36827">
        <ele>264.2</ele>
        <time>2020-09-30T08:51:03Z</time>
      </trkpt>
      <trkpt lat="46.1005" lon="6.36792">
        <ele>265.4</ele>
        <time>2020-09-30T08:50:59Z</time>
      </trkpt>
      <trkpt lat="46.10082" lon="6.36755">
        <ele>266.4</ele>
        <time>2020-09-30T08:50:55Z</time>
      </trkpt>
      <trkpt lat="46.10115" lon="6.36718">
        <ele>266.8</ele>
        <time>2020-09-30T08:50:51Z</time>
      </trkpt>
      <trkpt lat="46.1015" lon="6.36682">
        <ele>268.4</ele>
        <time>2020-09-30T08:50:47Z</time>
      </trkpt>
      <trkpt lat="46.10185" lon="6.3665">
        <ele>271</ele>
        <time>2020-09-30T08:50:43Z</time>
      </trkpt>
      <trkpt lat="46.10222" lon="6.36622">
        <ele>274.2</ele>
        <time>2020-09-30T08:50:39Z</time>
      </trkpt>
      <trkpt lat="46.10258" lon="6.36593">
        <ele>274</ele>
        <time>2020-09-30T08:50:35Z</time>
      </trkpt>
      <trkpt lat="46.10294" lon="6.36564">
        <ele>276.6</ele>
        <time>2020-09-30T08:50:31Z</time>
      </trkpt>
      <trkpt lat="46.1033" lon="6.36536">
        <ele>277.8</ele>
        <time>2020-09-30T08:50:27Z</time>
      </trkpt>
      <trkpt lat="46.10366" lon="6.36507">
        <ele>279.4</ele>
        <time>2020-09-30T08:50:23Z</time>
      </trkpt>
      <trkpt lat="46.10402" lon="6.36475">
        <ele>280.4</ele>
        <time>2020-09-30T08:50:19Z</time>
      </trkpt>
      <trkpt lat="46.1043" lon="6.36431">
        <ele>282.6</ele>
        <time>2020-09-30T08:50:15Z</time>
      </trkpt>
      <trkpt lat="46.1046" lon="6.36395">
        <ele>284</ele>
        <time>2020-09-30T08:50:11Z</time>
      </trkpt>
      <trkpt lat="46.10497" lon="6.36376">
        <ele>285.6</ele>
        <time>2020-09-30T08:50:07Z</time>
      </trkpt>
      <trkpt lat="46.10532" lon="6.36352">
        <ele>287</ele>
        <time>2020-09-30T08:50:03Z</time>
      </trkpt>
      <trkpt lat="46.10563" lon="6.36319">
        <ele>289.6</ele>
        <time>2020-09-30T08:49:59Z</time>
      </trkpt>
      <trkpt lat="46.10593" lon="6.36282">
        <ele>290.6</ele>
        <time>2020-09-30T08:49:55Z</time>
      </trkpt>
      <trkpt lat="46.10629" lon="6.36257">
        <ele>291.8</ele>
        <time>2020-09-30T08:49:51Z</time>
      </trkpt>
      <trkpt lat="46.10667" lon="6.36252">
        <ele>293.2</ele>
        <time>2020-09-30T08:49:47Z</time>
      </trkpt>
      <trkpt lat="46.10705" lon="6.36271">
        <ele>295</ele>
        <time>2020-09-30T08:49:43Z</time>
      </trkpt>
      <trkpt lat="46.10741" lon="6.36252">
        <ele>296.6</ele>
        <time>2020-09-30T08:49:39Z</time>
      </trkpt>
      <trkpt lat="46.10763" lon="6.36206">
        <ele>298</ele>
        <time>2020-09-30T08:49:35Z</time>
      </trkpt>
      <trkpt lat="46.10789" lon="6.36167">
        <ele>300.6</ele>
        <time>2020-09-30T08:49:31Z</time>
      </trkpt>
      <trkpt lat="46.10828" lon="6.36161">
        <ele>301</ele>
        <time>2020-09-30T08:49:27Z</time>
      </trkpt>
      <trkpt lat="46.10869" lon="6.36159">
        <ele>301.8</ele>
        <time>2020-09-30T08:49:23Z</time>
      </trkpt>
      <trkpt lat="46.10907" lon="6.36139">
        <ele>303.4</ele>
        <time>2020-09-30T08:49:19Z</time>
      </trkpt>
      <trkpt lat="46.10939" lon="6.36099">
        <ele>305</ele>
        <time>2020-09-30T08:49:15Z</time>
      </trkpt>
      <trkpt lat="46.10975" lon="6.36079">
        <ele>308</ele>
        <time>2020-09-30T08:49:11Z</time>
      </trkpt>
      <trkpt lat="46.11015" lon="6.36073">
        <ele>309.2</ele>
        <time>2020-09-30T08:49:07Z</time>
      </trkpt>
      <trkpt lat="46.11045" lon="6.36033">
        <ele>310.8</ele>
        <time>2020-09-30T08:49:03Z</time>
      </trkpt>
      <trkpt lat="46.11074" lon="6.36">
        <ele>312.8</ele>
        <time>2020-09-30T08:48:59Z</time>
      </trkpt>
      <trkpt lat="46.11113" lon="6.35999">
        <ele>313.8</ele>
        <time>2020-09-30T08:48:55Z</time>
      </trkpt>
      <trkpt lat="46.11154" lon="6.35992">
        <ele>314.6</ele>
        <time>2020-09-30T08:48:51Z</time>
      </trkpt>
      <trkpt lat="46.11194" lon="6.3598">
        <ele>316.2</ele>
        <time>2020-09-30T08:48:47Z</time>
      </trkpt>
      <trkpt lat="46.11235" lon="6.35982">
        <ele>318</ele>
        <time>2020-09-30T08:48:43Z</time>
      </trkpt>
      <trkpt lat="46.11274" lon="6.35969">
        <ele>320</ele>
        <time>2020-09-30T08:48:39Z</time>
      </trkpt>
      <trkpt lat="46.1131" lon="6.35951">
        <ele>321.2</ele>
        <time>2020-09-30T08:48:35Z</time>
      </trkpt>
      <trkpt lat="46.11345" lon="6.35941">
        <ele>322.8</ele>
        <time>2020-09-30T08:48:31Z</time>
      </trkpt>
      <trkpt lat="46.11384" lon="6.35947">
        <ele>325.4</ele>
        <time>2020-09-30T08:48:27Z</time>
      </trkpt>
      <trkpt lat="46.11421" lon="6.35973">
        <ele>326.2</ele>
        <time>2020-09-30T08:48:23Z</time>
      </trkpt>
      <trkpt lat="46.1145" lon="6.36004">
        <ele>327.6</ele>
        <time>2020-09-30T08:48:19Z</time>
      </trkpt>
      <trkpt lat="46.1148" lon="6.36037">
        <ele>328.4</ele>
        <time>2020-09-30T08:48:15Z</time>
      </trkpt>
      <trkpt lat="46.11519" lon="6.36047">
        <ele>329</ele>
        <time>2020-09-30T08:48:11Z</time>
      </trkpt>
      <trkpt lat="46.11558" lon="6.36032">
        <ele>333.4</ele>
        <time>2020-09-30T08:48:07Z</time>
      </trkpt>
      <trkpt lat="46.11584" lon="6.35997">
        <ele>335.2</ele>
        <time>2020-09-30T08:48:03Z</time>
      </trkpt>
      <trkpt lat="46.11593" lon="6.35949">
        <ele>336.4</ele>
        <time>2020-09-30T08:47:59Z</time>
      </trkpt>
      <trkpt lat="46.11579" lon="6.35904">
        <ele>338.4</ele>
        <time>2020-09-30T08:47:55Z</time>
      </trkpt>
      <trkpt lat="46.11566" lon="6.35862">
        <ele>341.2</ele>
        <time>2020-09-30T08:47:51Z</time>
      </trkpt>
      <trkpt lat="46.11559" lon="6.35822">
        <ele>343.6</ele>
        <time>2020-09-30T08:47:47Z</time>
      </trkpt>
      <trkpt lat="46.11556" lon="6.35786">
        <ele>345.8</ele>
        <time>2020-09-30T08:47:43Z</time>
      </trkpt>
      <trkpt lat="46.11549" lon="6.35763">
        <ele>347.8</ele>
        <time>2020-09-30T08:47:39Z</time>
      </trkpt>
      <trkpt lat="46.11545" lon="6.35751">
        <ele>349.8</ele>
        <time>2020-09-30T08:47:35Z</time>
      </trkpt>
      <trkpt lat="46.11544" lon="6.35749">
        <ele>350.2</ele>
        <time>2020-09-30T08:47:31Z</time>
      </trkpt>
      <trkpt lat="46.11544" lon="6.35749">
        <ele>349.8</ele>
        <time>2020-09-30T08:47:27Z</time>
      </trkpt>
      <trkpt lat="46.11544" lon="6.35749">
        <ele>350</ele>
        <time>2020-09-30T08:47:23Z</time>
      </trkpt>
      <trkpt lat="46.11544" lon="6.35749">
        <ele>350</ele>
        <time>2020-09-30T08:47:19Z</time>
      </trkpt>
      <trkpt lat="46.11544" lon="6.35747">
        <ele>349.8</ele>
        <time>2020-09-30T08:47:15Z</time>
      </trkpt>
      <trkpt lat="46.11544" lon="6.35747">
        <ele>349.4</ele>
        <time>2020-09-30T08:47:11Z</time>
      </trkpt>
      <trkpt lat="46.11544" lon="6.35747">
        <ele>349.2</ele>
        <time>2020-09-30T08:47:07Z</time>
      </trkpt>
      <trkpt lat="46.11544" lon="6.35747">
        <ele>349.2</ele>
        <time>2020-09-30T08:47:03Z</time>
      </trkpt>
      <trkpt lat="46.11544" lon="6.35747">
        <ele>349.6</ele>
        <time>2020-09-30T08:46:59Z</time>
      </trkpt>
      <trkpt lat="46.11544" lon="6.35748">
        <ele>349.6</ele>
        <time>2020-09-30T08:46:55Z</time>
      </trkpt>
      <trkpt lat="46.11544" lon="6.35748">
        <ele>349.6</ele>
        <time>2020-09-30T08:46:51Z</time>
      </trkpt>
      <trkpt lat="46.11544" lon="6.35748">
        <ele>350.4</ele>
        <time>2020-09-30T08:46:47Z</time>
      </trkpt>
      <trkpt lat="46.11544" lon="6.35748">
        <ele>349.6</ele>
        <time>2020-09-30T08:46:43Z</time>
      </trkpt>
      <trkpt lat="46.11544" lon="6.35748">
        <ele>350</ele>
        <time>2020-09-30T08:46:39Z</time>
      </trkpt>
      <trkpt lat="46.11544" lon="6.35748">
        <ele>349.6</ele>
        <time>2020-09-30T08:46:35Z</time>
      </trkpt>
      <trkpt lat="46.11543" lon="6.35742">
        <ele>350</ele>
        <time>2020-09-30T08:46:31Z</time>
      </trkpt>
      <trkpt lat="46.11542" lon="6.3574">
        <ele>350.2</ele>
        <time>2020-09-30T08:46:27Z</time>
      </trkpt>
      <trkpt lat="46.11542" lon="6.3574">
        <ele>350</ele>
        <time>2020-09-30T08:46:23Z</time>
      </trkpt>
      <trkpt lat="46.11543" lon="6.35726">
        <ele>348.4</ele>
        <time>2020-09-30T08:46:19Z</time>
      </trkpt>
      <trkpt lat="46.1156" lon="6.35691">
        <ele>347.6</ele>
        <time>2020-09-30T08:46:15Z</time>
      </trkpt>
      <trkpt lat="46.11594" lon="6.35685">
        <ele>350.2</ele>
        <time>2020-09-30T08:46:11Z</time>
      </trkpt>
      <trkpt lat="46.11622" lon="6.35714">
        <ele>352</ele>
        <time>2020-09-30T08:46:07Z</time>
      </trkpt>
      <trkpt lat="46.11645" lon="6.35747">
        <ele>354.2</ele>
        <time>2020-09-30T08:46:03Z</time>
      </trkpt>
      <trkpt lat="46.11666" lon="6.35778">
        <ele>356.2</ele>
        <time>2020-09-30T08:45:59Z</time>
      </trkpt>
      <trkpt lat="46.11691" lon="6.35801">
        <ele>358.4</ele>
        <time>2020-09-30T08:45:55Z</time>
      </trkpt>
      <trkpt lat="46.11717" lon="6.35805">
        <ele>360.6</ele>
        <time>2020-09-30T08:45:51Z</time>
      </trkpt>
      <trkpt lat="46.11737" lon="6.35797">
        <ele>361.4</ele>
        <time>2020-09-30T08:45:47Z</time>
      </trkpt>
      <trkpt lat="46.1176" lon="6.35777">
        <ele>361.6</ele>
        <time>2020-09-30T08:45:43Z</time>
      </trkpt>
      <trkpt lat="46.11784" lon="6.35764">
        <ele>363.4</ele>
        <time>2020-09-30T08:45:39Z</time>
      </trkpt>
      <trkpt lat="46.11806" lon="6.35765">
        <ele>365.2</ele>
        <time>2020-09-30T08:45:35Z</time>
      </trkpt>
      <trkpt lat="46.11824" lon="6.3577">
        <ele>366.6</ele>
        <time>2020-09-30T08:45:31Z</time>
      </trkpt>
      <trkpt lat="46.11838" lon="6.35775">
        <ele>367.8</ele>
        <time>2020-09-30T08:45:27Z</time>
      </trkpt>
      <trkpt lat="46.11854" lon="6.35779">
        <ele>367.8</ele>
        <time>2020-09-30T08:45:23Z</time>
      </trkpt>
      <trkpt lat="46.11871" lon="6.35783">
        <ele>369.2</ele>
        <time>2020-09-30T08:45:19Z</time>
      </trkpt>
      <trkpt lat="46.11885" lon="6.35784">
        <ele>370.2</ele>
        <time>2020-09-30T08:45:15Z</time>
      </trkpt>
      <trkpt lat="46.11895" lon="6.35776">
        <ele>369.6</ele>
        <time>2020-09-30T08:45:11Z</time>
      </trkpt>
      <trkpt lat="46.11907" lon="6.35766">
        <ele>368.6</ele>
        <time>2020-09-30T08:45:07Z</time>
      </trkpt>
      <trkpt lat="46.1192" lon="6.35756">
        <ele>367.6</ele>
        <time>2020-09-30T08:45:03Z</time>
      </trkpt>
      <trkpt lat="46.11932" lon="6.35747">
        <ele>366.4</ele>
        <time>2020-09-30T08:44:59Z</time>
      </trkpt>
      <trkpt lat="46.11944" lon="6.35738">
        <ele>365.8</ele>
        <time>2020-09-30T08:44:55Z</time>
      </trkpt>
      <trkpt lat="46.11957" lon="6.35729">
        <ele>364.8</ele>
        <time>2020-09-30T08:44:51Z</time>
      </trkpt>
      <trkpt lat="46.11968" lon="6.35719">
        <ele>363</ele>
        <time>2020-09-30T08:44:47Z</time>
      </trkpt>
      <trkpt lat="46.1198" lon="6.35708">
        <ele>361.8</ele>
        <time>2020-09-30T08:44:43Z</time>
      </trkpt>
      <trkpt lat="46.11991" lon="6.35697">
        <ele>360.8</ele>
        <time>2020-09-30T08:44:39Z</time>
      </trkpt>
      <trkpt lat="46.12003" lon="6.35687">
        <ele>359.4</ele>
        <time>2020-09-30T08:44:35Z</time>
      </trkpt>
      <trkpt lat="46.12015" lon="6.35677">
        <ele>357.8</ele>
        <time>2020-09-30T08:44:31Z</time>
      </trkpt>
      <trkpt lat="46.12027" lon="6.35668">
        <ele>356.6</ele>
        <time>2020-09-30T08:44:27Z</time>
      </trkpt>
      <trkpt lat="46.1204" lon="6.35658">
        <ele>356.2</ele>
        <time>2020-09-30T08:44:23Z</time>
      </trkpt>
      <trkpt lat="46.12053" lon="6.35648">
        <ele>355</ele>
        <time>2020-09-30T08:44:19Z</time>
      </trkpt>
      <trkpt lat="46.12066" lon="6.35637">
        <ele>355</ele>
        <time>2020-09-30T08:44:15Z</time>
      </trkpt>
      <trkpt lat="46.12078" lon="6.35625">
        <ele>354.4</ele>
        <time>2020-09-30T08:44:11Z</time>
      </trkpt>
      <trkpt lat="46.1209" lon="6.35613">
        <ele>352.4</ele>
        <time>2020-09-30T08:44:07Z</time>
      </trkpt>
      <trkpt lat="46.12103" lon="6.35604">
        <ele>351.8</ele>
        <time>2020-09-30T08:44:03Z</time>
      </trkpt>
      <trkpt lat="46.12117" lon="6.35593">
        <ele>351</ele>
        <time>2020-09-30T08:43:59Z</time>
      </trkpt>
      <trkpt lat="46.12132" lon="6.35583">
        <ele>349.8</ele>
        <time>2020-09-30T08:43:55Z</time>
      </trkpt>
      <trkpt lat="46.12146" lon="6.35577">
        <ele>348.6</ele>
        <time>2020-09-30T08:43:51Z</time>
      </trkpt>
      <trkpt lat="46.1216" lon="6.35567">
        <ele>347.4</ele>
        <time>2020-09-30T08:43:47Z</time>
      </trkpt>
      <trkpt lat="46.12176" lon="6.35554">
        <ele>346</ele>
        <time>2020-09-30T08:43:43Z</time>
      </trkpt>
      <trkpt lat="46.12193" lon="6.35544">
        <ele>344.8</ele>
        <time>2020-09-30T08:43:39Z</time>
      </trkpt>
      <trkpt lat="46.12211" lon="6.35533">
        <ele>344</ele>
        <time>2020-09-30T08:43:35Z</time>
      </trkpt>
      <trkpt lat="46.1223" lon="6.35523">
        <ele>343</ele>
        <time>2020-09-30T08:43:31Z</time>
      </trkpt>
      <trkpt lat="46.12251" lon="6.35512">
        <ele>341.2</ele>
        <time>2020-09-30T08:43:27Z</time>
      </trkpt>
      <trkpt lat="46.12274" lon="6.35501">
        <ele>340.4</ele>
        <time>2020-09-30T08:43:23Z</time>
      </trkpt>
      <trkpt lat="46.12298" lon="6.35495">
        <ele>340.4</ele>
        <time>2020-09-30T08:43:19Z</time>
      </trkpt>
      <trkpt lat="46.12321" lon="6.35493">
        <ele>340.4</ele>
        <time>2020-09-30T08:43:15Z</time>
      </trkpt>
      <trkpt lat="46.12344" lon="6.35495">
        <ele>339.8</ele>
        <time>2020-09-30T08:43:11Z</time>
      </trkpt>
      <trkpt lat="46.12366" lon="6.355">
        <ele>338.6</ele>
        <time>2020-09-30T08:43:07Z</time>
      </trkpt>
      <trkpt lat="46.12389" lon="6.35491">
        <ele>338.4</ele>
        <time>2020-09-30T08:43:03Z</time>
      </trkpt>
      <trkpt lat="46.12409" lon="6.35474">
        <ele>336.8</ele>
        <time>2020-09-30T08:42:59Z</time>
      </trkpt>
      <trkpt lat="46.12432" lon="6.35465">
        <ele>337.4</ele>
        <time>2020-09-30T08:42:55Z</time>
      </trkpt>
      <trkpt lat="46.12455" lon="6.35464">
        <ele>337</ele>
        <time>2020-09-30T08:42:51Z</time>
      </trkpt>
      <trkpt lat="46.12479" lon="6.35468">
        <ele>336</ele>
        <time>2020-09-30T08:42:47Z</time>
      </trkpt>
      <trkpt lat="46.12503" lon="6.35461">
        <ele>337.2</ele>
        <time>2020-09-30T08:42:43Z</time>
      </trkpt>
      <trkpt lat="46.12522" lon="6.35439">
        <ele>336.6</ele>
        <time>2020-09-30T08:42:39Z</time>
      </trkpt>
      <trkpt lat="46.1254" lon="6.35417">
        <ele>335.6</ele>
        <time>2020-09-30T08:42:35Z</time>
      </trkpt>
      <trkpt lat="46.12558" lon="6.35397">
        <ele>335</ele>
        <time>2020-09-30T08:42:31Z</time>
      </trkpt>
      <trkpt lat="46.1258" lon="6.35378">
        <ele>335</ele>
        <time>2020-09-30T08:42:27Z</time>
      </trkpt>
      <trkpt lat="46.12604" lon="6.35365">
        <ele>336.6</ele>
        <time>2020-09-30T08:42:23Z</time>
      </trkpt>
      <trkpt lat="46.12626" lon="6.35352">
        <ele>336.6</ele>
        <time>2020-09-30T08:42:19Z</time>
      </trkpt>
      <trkpt lat="46.12646" lon="6.35335">
        <ele>337.8</ele>
        <time>2020-09-30T08:42:15Z</time>
      </trkpt>
      <trkpt lat="46.12665" lon="6.35315">
        <ele>338</ele>
        <time>2020-09-30T08:42:11Z</time>
      </trkpt>
      <trkpt lat="46.12684" lon="6.35294">
        <ele>339</ele>
        <time>2020-09-30T08:42:07Z</time>
      </trkpt>
      <trkpt lat="46.12704" lon="6.35278">
        <ele>340</ele>
        <time>2020-09-30T08:42:03Z</time>
      </trkpt>
      <trkpt lat="46.12723" lon="6.35265">
        <ele>340.4</ele>
        <time>2020-09-30T08:41:59Z</time>
      </trkpt>
      <trkpt lat="46.12743" lon="6.35259">
        <ele>342.6</ele>
        <time>2020-09-30T08:41:55Z</time>
      </trkpt>
      <trkpt lat="46.12758" lon="6.35257">
        <ele>342.6</ele>
        <time>2020-09-30T08:41:51Z</time>
      </trkpt>
      <trkpt lat="46.12775" lon="6.35256">
        <ele>342.4</ele>
        <time>2020-09-30T08:41:47Z</time>
      </trkpt>
      <trkpt lat="46.12792" lon="6.35254">
        <ele>342.6</ele>
        <time>2020-09-30T08:41:43Z</time>
      </trkpt>
      <trkpt lat="46.12807" lon="6.35248">
        <ele>343</ele>
        <time>2020-09-30T08:41:39Z</time>
      </trkpt>
      <trkpt lat="46.12817" lon="6.35233">
        <ele>342.6</ele>
        <time>2020-09-30T08:41:35Z</time>
      </trkpt>
      <trkpt lat="46.12822" lon="6.35214">
        <ele>341.4</ele>
        <time>2020-09-30T08:41:31Z</time>
      </trkpt>
      <trkpt lat="46.12826" lon="6.35195">
        <ele>340.8</ele>
        <time>2020-09-30T08:41:27Z</time>
      </trkpt>
      <trkpt lat="46.12831" lon="6.35176">
        <ele>340.4</ele>
        <time>2020-09-30T08:41:23Z</time>
      </trkpt>
      <trkpt lat="46.12836" lon="6.3516">
        <ele>340.4</ele>
        <time>2020-09-30T08:41:19Z</time>
      </trkpt>
      <trkpt lat="46.12841" lon="6.35145">
        <ele>340.4</ele>
        <time>2020-09-30T08:41:15Z</time>
      </trkpt>
      <trkpt lat="46.12845" lon="6.35127">
        <ele>340.2</ele>
        <time>2020-09-30T08:41:11Z</time>
      </trkpt>
      <trkpt lat="46.12851" lon="6.35111">
        <ele>338.8</ele>
        <time>2020-09-30T08:41:07Z</time>
      </trkpt>
      <trkpt lat="46.12857" lon="6.35096">
        <ele>338.6</ele>
        <time>2020-09-30T08:41:03Z</time>
      </trkpt>
      <trkpt lat="46.12864" lon="6.35083">
        <ele>337.4</ele>
        <time>2020-09-30T08:40:59Z</time>
      </trkpt>
      <trkpt lat="46.12871" lon="6.35072">
        <ele>336.2</ele>
        <time>2020-09-30T08:40:55Z</time>
      </trkpt>
      <trkpt lat="46.1288" lon="6.35062">
        <ele>335.4</ele>
        <time>2020-09-30T08:40:51Z</time>
      </trkpt>
      <trkpt lat="46.12889" lon="6.35055">
        <ele>333.6</ele>
        <time>2020-09-30T08:40:47Z</time>
      </trkpt>
      <trkpt lat="46.12899" lon="6.35049">
        <ele>332.8</ele>
        <time>2020-09-30T08:40:43Z</time>
      </trkpt>
      <trkpt lat="46.12909" lon="6.35041">
        <ele>331.8</ele>
        <time>2020-09-30T08:40:39Z</time>
      </trkpt>
      <trkpt lat="46.12918" lon="6.35036">
        <ele>330.4</ele>
        <time>2020-09-30T08:40:35Z</time>
      </trkpt>
      <trkpt lat="46.12928" lon="6.35032">
        <ele>328.8</ele>
        <time>2020-09-30T08:40:31Z</time>
      </trkpt>
      <trkpt lat="46.12939" lon="6.35026">
        <ele>328.2</ele>
        <time>2020-09-30T08:40:27Z</time>
      </trkpt>
      <trkpt lat="46.12947" lon="6.35017">
        <ele>327.6</ele>
        <time>2020-09-30T08:40:23Z</time>
      </trkpt>
      <trkpt lat="46.12955" lon="6.35008">
        <ele>326.2</ele>
        <time>2020-09-30T08:40:19Z</time>
      </trkpt>
      <trkpt lat="46.12964" lon="6.35">
        <ele>324.6</ele>
        <time>2020-09-30T08:40:15Z</time>
      </trkpt>
      <trkpt lat="46.12973" lon="6.3499">
        <ele>323.8</ele>
        <time>2020-09-30T08:40:11Z</time>
      </trkpt>
      <trkpt lat="46.12982" lon="6.34981">
        <ele>322.4</ele>
        <time>2020-09-30T08:40:07Z</time>
      </trkpt>
      <trkpt lat="46.1299" lon="6.34972">
        <ele>321.4</ele>
        <time>2020-09-30T08:40:03Z</time>
      </trkpt>
      <trkpt lat="46.12998" lon="6.34961">
        <ele>319.8</ele>
        <time>2020-09-30T08:39:59Z</time>
      </trkpt>
      <trkpt lat="46.13006" lon="6.3495">
        <ele>319</ele>
        <time>2020-09-30T08:39:55Z</time>
      </trkpt>
      <trkpt lat="46.13015" lon="6.34938">
        <ele>318.2</ele>
        <time>2020-09-30T08:39:51Z</time>
      </trkpt>
      <trkpt lat="46.13024" lon="6.34925">
        <ele>317.6</ele>
        <time>2020-09-30T08:39:47Z</time>
      </trkpt>
      <trkpt lat="46.13032" lon="6.34913">
        <ele>316.8</ele>
        <time>2020-09-30T08:39:43Z</time>
      </trkpt>
      <trkpt lat="46.1304" lon="6.34901">
        <ele>315.6</ele>
        <time>2020-09-30T08:39:39Z</time>
      </trkpt>
      <trkpt lat="46.13049" lon="6.3489">
        <ele>314.6</ele>
        <time>2020-09-30T08:39:35Z</time>
      </trkpt>
      <trkpt lat="46.13056" lon="6.34877">
        <ele>313.2</ele>
        <time>2020-09-30T08:39:31Z</time>
      </trkpt>
      <trkpt lat="46.13062" lon="6.34864">
        <ele>312</ele>
        <time>2020-09-30T08:39:27Z</time>
      </trkpt>
      <trkpt lat="46.13069" lon="6.3485">
        <ele>311.2</ele>
        <time>2020-09-30T08:39:23Z</time>
      </trkpt>
      <trkpt lat="46.13074" lon="6.34835">
        <ele>309.8</ele>
        <time>2020-09-30T08:39:19Z</time>
      </trkpt>
      <trkpt lat="46.13079" lon="6.34821">
        <ele>308.6</ele>
        <time>2020-09-30T08:39:15Z</time>
      </trkpt>
      <trkpt lat="46.13084" lon="6.34805">
        <ele>308</ele>
        <time>2020-09-30T08:39:11Z</time>
      </trkpt>
      <trkpt lat="46.13092" lon="6.3479">
        <ele>306</ele>
        <time>2020-09-30T08:39:07Z</time>
      </trkpt>
      <trkpt lat="46.131" lon="6.34778">
        <ele>304.8</ele>
        <time>2020-09-30T08:39:03Z</time>
      </trkpt>
      <trkpt lat="46.1311" lon="6.34765">
        <ele>303.4</ele>
        <time>2020-09-30T08:38:59Z</time>
      </trkpt>
      <trkpt lat="46.1312" lon="6.34752">
        <ele>302.4</ele>
        <time>2020-09-30T08:38:55Z</time>
      </trkpt>
      <trkpt lat="46.13129" lon="6.34738">
        <ele>300.8</ele>
        <time>2020-09-30T08:38:51Z</time>
      </trkpt>
      <trkpt lat="46.13138" lon="6.34724">
        <ele>299.6</ele>
        <time>2020-09-30T08:38:47Z</time>
      </trkpt>
      <trkpt lat="46.13146" lon="6.34709">
        <ele>298</ele>
        <time>2020-09-30T08:38:43Z</time>
      </trkpt>
      <trkpt lat="46.13156" lon="6.34691">
        <ele>296.4</ele>
        <time>2020-09-30T08:38:39Z</time>
      </trkpt>
      <trkpt lat="46.13168" lon="6.34672">
        <ele>295</ele>
        <time>2020-09-30T08:38:35Z</time>
      </trkpt>
      <trkpt lat="46.1318" lon="6.34651">
        <ele>293.8</ele>
        <time>2020-09-30T08:38:31Z</time>
      </trkpt>
      <trkpt lat="46.13193" lon="6.34631">
        <ele>293.2</ele>
        <time>2020-09-30T08:38:27Z</time>
      </trkpt>
      <trkpt lat="46.13207" lon="6.34613">
        <ele>292.6</ele>
        <time>2020-09-30T08:38:23Z</time>
      </trkpt>
      <trkpt lat="46.13223" lon="6.34597">
        <ele>292.2</ele>
        <time>2020-09-30T08:38:19Z</time>
      </trkpt>
      <trkpt lat="46.13241" lon="6.34585">
        <ele>291.4</ele>
        <time>2020-09-30T08:38:15Z</time>
      </trkpt>
      <trkpt lat="46.1326" lon="6.34576">
        <ele>290.6</ele>
        <time>2020-09-30T08:38:11Z</time>
      </trkpt>
      <trkpt lat="46.13279" lon="6.34565">
        <ele>288.8</ele>
        <time>2020-09-30T08:38:07Z</time>
      </trkpt>
      <trkpt lat="46.13298" lon="6.34551">
        <ele>288.2</ele>
        <time>2020-09-30T08:38:03Z</time>
      </trkpt>
      <trkpt lat="46.13317" lon="6.34534">
        <ele>287.4</ele>
        <time>2020-09-30T08:37:59Z</time>
      </trkpt>
      <trkpt lat="46.13335" lon="6.34515">
        <ele>287</ele>
        <time>2020-09-30T08:37:55Z</time>
      </trkpt>
      <trkpt lat="46.13354" lon="6.34501">
        <ele>286.2</ele>
        <time>2020-09-30T08:37:51Z</time>
      </trkpt>
      <trkpt lat="46.13374" lon="6.34491">
        <ele>286</ele>
        <time>2020-09-30T08:37:47Z</time>
      </trkpt>
      <trkpt lat="46.13395" lon="6.34481">
        <ele>284.4</ele>
        <time>2020-09-30T08:37:43Z</time>
      </trkpt>
      <trkpt lat="46.13417" lon="6.34474">
        <ele>285</ele>
        <time>2020-09-30T08:37:39Z</time>
      </trkpt>
      <trkpt lat="46.13438" lon="6.34468">
        <ele>285.6</ele>
        <time>2020-09-30T08:37:35Z</time>
      </trkpt>
      <trkpt lat="46.13458" lon="6.34459">
        <ele>286.4</ele>
        <time>2020-09-30T08:37:31Z</time>
      </trkpt>
      <trkpt lat="46.13476" lon="6.34447">
        <ele>285.8</ele>
        <time>2020-09-30T08:37:27Z</time>
      </trkpt>
      <trkpt lat="46.13493" lon="6.34434">
        <ele>285.2</ele>
        <time>2020-09-30T08:37:23Z</time>
      </trkpt>
      <trkpt lat="46.13511" lon="6.34421">
        <ele>285.2</ele>
        <time>2020-09-30T08:37:19Z</time>
      </trkpt>
      <trkpt lat="46.13529" lon="6.34409">
        <ele>284.8</ele>
        <time>2020-09-30T08:37:15Z</time>
      </trkpt>
      <trkpt lat="46.13547" lon="6.34397">
        <ele>284.4</ele>
        <time>2020-09-30T08:37:11Z</time>
      </trkpt>
      <trkpt lat="46.13565" lon="6.34385">
        <ele>283.8</ele>
        <time>2020-09-30T08:37:07Z</time>
      </trkpt>
      <trkpt lat="46.13582" lon="6.34373">
        <ele>283.2</ele>
        <time>2020-09-30T08:37:03Z</time>
      </trkpt>
      <trkpt lat="46.13599" lon="6.34362">
        <ele>283</ele>
        <time>2020-09-30T08:36:59Z</time>
      </trkpt>
      <trkpt lat="46.13615" lon="6.34351">
        <ele>282.6</ele>
        <time>2020-09-30T08:36:55Z</time>
      </trkpt>
      <trkpt lat="46.13631" lon="6.34341">
        <ele>281.8</ele>
        <time>2020-09-30T08:36:51Z</time>
      </trkpt>
      <trkpt lat="46.13646" lon="6.34328">
        <ele>281.6</ele>
        <time>2020-09-30T08:36:47Z</time>
      </trkpt>
      <trkpt lat="46.13661" lon="6.34316">
        <ele>280.6</ele>
        <time>2020-09-30T08:36:43Z</time>
      </trkpt>
      <trkpt lat="46.13675" lon="6.34304">
        <ele>280</ele>
        <time>2020-09-30T08:36:39Z</time>
      </trkpt>
      <trkpt lat="46.13689" lon="6.34292">
        <ele>279</ele>
        <time>2020-09-30T08:36:35Z</time>
      </trkpt>
      <trkpt lat="46.13704" lon="6.3428">
        <ele>277.6</ele>
        <time>2020-09-30T08:36:31Z</time>
      </trkpt>
      <trkpt lat="46.13717" lon="6.34269">
        <ele>276.8</ele>
        <time>2020-09-30T08:36:27Z</time>
      </trkpt>
      <trkpt lat="46.13732" lon="6.34258">
        <ele>274.8</ele>
        <time>2020-09-30T08:36:23Z</time>
      </trkpt>
      <trkpt lat="46.1375" lon="6.34243">
        <ele>273</ele>
        <time>2020-09-30T08:36:19Z</time>
      </trkpt>
      <trkpt lat="46.13771" lon="6.34229">
        <ele>272.2</ele>
        <time>2020-09-30T08:36:15Z</time>
      </trkpt>
      <trkpt lat="46.13795" lon="6.34226">
        <ele>272.6</ele>
        <time>2020-09-30T08:36:11Z</time>
      </trkpt>
      <trkpt lat="46.13817" lon="6.34227">
        <ele>273</ele>
        <time>2020-09-30T08:36:07Z</time>
      </trkpt>
      <trkpt lat="46.1384" lon="6.34225">
        <ele>272.6</ele>
        <time>2020-09-30T08:36:03Z</time>
      </trkpt>
      <trkpt lat="46.13862" lon="6.34223">
        <ele>273.2</ele>
        <time>2020-09-30T08:35:59Z</time>
      </trkpt>
      <trkpt lat="46.13884" lon="6.34221">
        <ele>273.6</ele>
        <time>2020-09-30T08:35:55Z</time>
      </trkpt>
      <trkpt lat="46.13905" lon="6.34217">
        <ele>274.4</ele>
        <time>2020-09-30T08:35:51Z</time>
      </trkpt>
      <trkpt lat="46.13923" lon="6.34212">
        <ele>276.2</ele>
        <time>2020-09-30T08:35:47Z</time>
      </trkpt>
      <trkpt lat="46.13937" lon="6.34202">
        <ele>274.6</ele>
        <time>2020-09-30T08:35:43Z</time>
      </trkpt>
      <trkpt lat="46.13952" lon="6.34191">
        <ele>272.8</ele>
        <time>2020-09-30T08:35:39Z</time>
      </trkpt>
      <trkpt lat="46.13969" lon="6.34179">
        <ele>271.4</ele>
        <time>2020-09-30T08:35:35Z</time>
      </trkpt>
      <trkpt lat="46.13987" lon="6.34165">
        <ele>270.2</ele>
        <time>2020-09-30T08:35:31Z</time>
      </trkpt>
      <trkpt lat="46.14006" lon="6.34153">
        <ele>269.8</ele>
        <time>2020-09-30T08:35:27Z</time>
      </trkpt>
      <trkpt lat="46.14025" lon="6.34141">
        <ele>270.2</ele>
        <time>2020-09-30T08:35:23Z</time>
      </trkpt>
      <trkpt lat="46.14043" lon="6.3413">
        <ele>269.2</ele>
        <time>2020-09-30T08:35:19Z</time>
      </trkpt>
      <trkpt lat="46.1406" lon="6.34118">
        <ele>268</ele>
        <time>2020-09-30T08:35:15Z</time>
      </trkpt>
      <trkpt lat="46.14076" lon="6.34104">
        <ele>267</ele>
        <time>2020-09-30T08:35:11Z</time>
      </trkpt>
      <trkpt lat="46.14088" lon="6.34087">
        <ele>265.6</ele>
        <time>2020-09-30T08:35:07Z</time>
      </trkpt>
      <trkpt lat="46.14101" lon="6.34075">
        <ele>265</ele>
        <time>2020-09-30T08:35:03Z</time>
      </trkpt>
      <trkpt lat="46.14122" lon="6.34064">
        <ele>265.8</ele>
        <time>2020-09-30T08:34:59Z</time>
      </trkpt>
      <trkpt lat="46.14145" lon="6.34055">
        <ele>267.4</ele>
        <time>2020-09-30T08:34:55Z</time>
      </trkpt>
      <trkpt lat="46.14163" lon="6.34047">
        <ele>267.8</ele>
        <time>2020-09-30T08:34:51Z</time>
      </trkpt>
      <trkpt lat="46.14183" lon="6.34036">
        <ele>267.2</ele>
        <time>2020-09-30T08:34:47Z</time>
      </trkpt>
      <trkpt lat="46.14207" lon="6.34024">
        <ele>267.8</ele>
        <time>2020-09-30T08:34:43Z</time>
      </trkpt>
      <trkpt lat="46.14229" lon="6.34012">
        <ele>267.8</ele>
        <time>2020-09-30T08:34:39Z</time>
      </trkpt>
      <trkpt lat="46.14251" lon="6.34001">
        <ele>268.6</ele>
        <time>2020-09-30T08:34:35Z</time>
      </trkpt>
      <trkpt lat="46.14272" lon="6.3399">
        <ele>268.8</ele>
        <time>2020-09-30T08:34:31Z</time>
      </trkpt>
      <trkpt lat="46.14291" lon="6.33976">
        <ele>269.8</ele>
        <time>2020-09-30T08:34:27Z</time>
      </trkpt>
      <trkpt lat="46.14306" lon="6.33958">
        <ele>269.4</ele>
        <time>2020-09-30T08:34:23Z</time>
      </trkpt>
      <trkpt lat="46.14323" lon="6.33944">
        <ele>269.6</ele>
        <time>2020-09-30T08:34:19Z</time>
      </trkpt>
      <trkpt lat="46.1434" lon="6.33934">
        <ele>269.8</ele>
        <time>2020-09-30T08:34:15Z</time>
      </trkpt>
      <trkpt lat="46.14359" lon="6.33926">
        <ele>270</ele>
        <time>2020-09-30T08:34:11Z</time>
      </trkpt>
      <trkpt lat="46.14377" lon="6.33919">
        <ele>270.4</ele>
        <time>2020-09-30T08:34:07Z</time>
      </trkpt>
      <trkpt lat="46.14395" lon="6.3391">
        <ele>270.4</ele>
        <time>2020-09-30T08:34:03Z</time>
      </trkpt>
      <trkpt lat="46.14412" lon="6.33903">
        <ele>271.4</ele>
        <time>2020-09-30T08:33:59Z</time>
      </trkpt>
      <trkpt lat="46.14427" lon="6.33897">
        <ele>271</ele>
        <time>2020-09-30T08:33:55Z</time>
      </trkpt>
      <trkpt lat="46.14442" lon="6.33891">
        <ele>270</ele>
        <time>2020-09-30T08:33:51Z</time>
      </trkpt>
      <trkpt lat="46.14456" lon="6.33885">
        <ele>269.2</ele>
        <time>2020-09-30T08:33:47Z</time>
      </trkpt>
      <trkpt lat="46.14472" lon="6.3388">
        <ele>268.6</ele>
        <time>2020-09-30T08:33:43Z</time>
      </trkpt>
      <trkpt lat="46.14487" lon="6.33875">
        <ele>267.4</ele>
        <time>2020-09-30T08:33:39Z</time>
      </trkpt>
      <trkpt lat="46.14502" lon="6.33869">
        <ele>266.6</ele>
        <time>2020-09-30T08:33:35Z</time>
      </trkpt>
      <trkpt lat="46.14518" lon="6.33862">
        <ele>265.2</ele>
        <time>2020-09-30T08:33:31Z</time>
      </trkpt>
      <trkpt lat="46.14533" lon="6.33849">
        <ele>264</ele>
        <time>2020-09-30T08:33:27Z</time>
      </trkpt>
      <trkpt lat="46.14545" lon="6.3383">
        <ele>263.6</ele>
        <time>2020-09-30T08:33:23Z</time>
      </trkpt>
      <trkpt lat="46.14559" lon="6.33813">
        <ele>262.8</ele>
        <time>2020-09-30T08:33:19Z</time>
      </trkpt>
      <trkpt lat="46.14574" lon="6.338">
        <ele>261.4</ele>
        <time>2020-09-30T08:33:15Z</time>
      </trkpt>
      <trkpt lat="46.14589" lon="6.33788">
        <ele>260.6</ele>
        <time>2020-09-30T08:33:11Z</time>
      </trkpt>
      <trkpt lat="46.14605" lon="6.33776">
        <ele>260.6</ele>
        <time>2020-09-30T08:33:07Z</time>
      </trkpt>
      <trkpt lat="46.1462" lon="6.33765">
        <ele>259.6</ele>
        <time>2020-09-30T08:33:03Z</time>
      </trkpt>
      <trkpt lat="46.14636" lon="6.33753">
        <ele>258.4</ele>
        <time>2020-09-30T08:32:59Z</time>
      </trkpt>
      <trkpt lat="46.14652" lon="6.33742">
        <ele>258.2</ele>
        <time>2020-09-30T08:32:55Z</time>
      </trkpt>
      <trkpt lat="46.14667" lon="6.33731">
        <ele>257.6</ele>
        <time>2020-09-30T08:32:51Z</time>
      </trkpt>
      <trkpt lat="46.14682" lon="6.33722">
        <ele>257.2</ele>
        <time>2020-09-30T08:32:47Z</time>
      </trkpt>
      <trkpt lat="46.14697" lon="6.33712">
        <ele>256.6</ele>
        <time>2020-09-30T08:32:43Z</time>
      </trkpt>
      <trkpt lat="46.14711" lon="6.33702">
        <ele>256.2</ele>
        <time>2020-09-30T08:32:39Z</time>
      </trkpt>
      <trkpt lat="46.14715" lon="6.33684">
        <ele>256</ele>
        <time>2020-09-30T08:32:35Z</time>
      </trkpt>
      <trkpt lat="46.1475" lon="6.33757">
        <ele>534.3</ele>
      </trkpt>
      <trkpt lat="46.1478" lon="6.33822">
        <ele>539.9</ele>
      </trkpt>
      <trkpt lat="46.14811" lon="6.33873">
        <ele>545.1</ele>
      </trkpt>
      <trkpt lat="46.14818" lon="6.33882">
        <ele>545.9</ele>
      </trkpt>
      <trkpt lat="46.14827" lon="6.33893">
        <ele>546.8</ele>
      </trkpt>
      <trkpt lat="46.14854" lon="6.33922">
        <ele>548.3</ele>
      </trkpt>
      <trkpt lat="46.14882" lon="6.33941">
        <ele>549</ele>
      </trkpt>
      <trkpt lat="46.14892" lon="6.33949">
        <ele>549.4</ele>
      </trkpt>
      <trkpt lat="46.14896" lon="6.33952">
        <ele>549.5</ele>
      </trkpt>
      <trkpt lat="46.14934" lon="6.3398">
        <ele>551.7</ele>
      </trkpt>
      <trkpt lat="46.15009" lon="6.34052">
        <ele>555.8</ele>
      </trkpt>
      <trkpt lat="46.1507" lon="6.34099">
        <ele>556.7</ele>
      </trkpt>
      <trkpt lat="46.15105" lon="6.34132">
        <ele>557.8</ele>
      </trkpt>
      <trkpt lat="46.15115" lon="6.3414">
        <ele>558.3</ele>
      </trkpt>
      <trkpt lat="46.15159" lon="6.34194">
        <ele>560.7</ele>
      </trkpt>
      <trkpt lat="46.15172" lon="6.34202">
        <ele>560.5</ele>
      </trkpt>
      <trkpt lat="46.15186" lon="6.34201">
        <ele>559.2</ele>
      </trkpt>
      <trkpt lat="46.15191" lon="6.34216">
        <ele>558.8</ele>
      </trkpt>
      <trkpt lat="46.15202" lon="6.34262">
        <ele>558.4</ele>
      </trkpt>
      <trkpt lat="46.15206" lon="6.34287">
        <ele>558.8</ele>
      </trkpt>
      <trkpt lat="46.15239" lon="6.34359">
        <ele>559.6</ele>
      </trkpt>
      <trkpt lat="46.15245" lon="6.34372">
        <ele>560</ele>
      </trkpt>
      <trkpt lat="46.15252" lon="6.34385">
        <ele>560.3</ele>
      </trkpt>
      <trkpt lat="46.15253" lon="6.34384">
        <ele>560.2</ele>
      </trkpt>
      <trkpt lat="46.15255" lon="6.34382">
        <ele>559.9</ele>
      </trkpt>
      <trkpt lat="46.1526" lon="6.34381">
        <ele>559.4</ele>
      </trkpt>
      <trkpt lat="46.1527" lon="6.34392">
        <ele>559.1</ele>
      </trkpt>
      <trkpt lat="46.15283" lon="6.34407">
        <ele>558.8</ele>
      </trkpt>
      <trkpt lat="46.1532" lon="6.34433">
        <ele>557.2</ele>
      </trkpt>
      <trkpt lat="46.15324" lon="6.34434">
        <ele>557</ele>
      </trkpt>
      <trkpt lat="46.15329" lon="6.34436">
        <ele>556.7</ele>
      </trkpt>
      <trkpt lat="46.15341" lon="6.34434">
        <ele>555.6</ele>
      </trkpt>
      <trkpt lat="46.15357" lon="6.34424">
        <ele>553.6</ele>
      </trkpt>
      <trkpt lat="46.15371" lon="6.34413">
        <ele>551.6</ele>
      </trkpt>
      <trkpt lat="46.15347" lon="6.34354">
        <ele>550.5</ele>
      </trkpt>
      <trkpt lat="46.15301" lon="6.34238">
        <ele>547.3</ele>
      </trkpt>
      <trkpt lat="46.15292" lon="6.34214">
        <ele>547.4</ele>
      </trkpt>
      <trkpt lat="46.15287" lon="6.34195">
        <ele>547.4</ele>
      </trkpt>
      <trkpt lat="46.15285" lon="6.34177">
        <ele>547.1</ele>
      </trkpt>
      <trkpt lat="46.15285" lon="6.34173">
        <ele>546.9</ele>
      </trkpt>
      <trkpt lat="46.15284" lon="6.34161">
        <ele>546.8</ele>
      </trkpt>
      <trkpt lat="46.1529" lon="6.34086">
        <ele>544.9</ele>
      </trkpt>
      <trkpt lat="46.1529" lon="6.34055">
        <ele>543.3</ele>
      </trkpt>
      <trkpt lat="46.1529" lon="6.34048">
        <ele>543</ele>
      </trkpt>
      <trkpt lat="46.15289" lon="6.34043">
        <ele>542.9</ele>
      </trkpt>
      <trkpt lat="46.15285" lon="6.34019">
        <ele>542.5</ele>
      </trkpt>
      <trkpt lat="46.15257" lon="6.33927">
        <ele>542.5</ele>
      </trkpt>
      <trkpt lat="46.15244" lon="6.33864">
        <ele>538.9</ele>
      </trkpt>
      <trkpt lat="46.15223" lon="6.33731">
        <ele>539.5</ele>
      </trkpt>
      <trkpt lat="46.15217" lon="6.33702">
        <ele>539.4</ele>
      </trkpt>
      <trkpt lat="46.1521" lon="6.33678">
        <ele>539.6</ele>
      </trkpt>
      <trkpt lat="46.15186" lon="6.33613">
        <ele>540.1</ele>
      </trkpt>
      <trkpt lat="46.15177" lon="6.33577">
        <ele>540</ele>
      </trkpt>
      <trkpt lat="46.15175" lon="6.3356">
        <ele>540.2</ele>
      </trkpt>
      <trkpt lat="46.15175" lon="6.33543">
        <ele>540.2</ele>
      </trkpt>
      <trkpt lat="46.15176" lon="6.33533">
        <ele>540</ele>
      </trkpt>
      <trkpt lat="46.15178" lon="6.33511">
        <ele>539.8</ele>
      </trkpt>
      <trkpt lat="46.15182" lon="6.33494">
        <ele>539.4</ele>
      </trkpt>
      <trkpt lat="46.1519" lon="6.33471">
        <ele>538.9</ele>
      </trkpt>
      <trkpt lat="46.15213" lon="6.33406">
        <ele>536.2</ele>
      </trkpt>
      <trkpt lat="46.15218" lon="6.33392">
        <ele>535.3</ele>
      </trkpt>
      <trkpt lat="46.15226" lon="6.33367">
        <ele>533.9</ele>
      </trkpt>
      <trkpt lat="46.15229" lon="6.33348">
        <ele>533.4</ele>
      </trkpt>
      <trkpt lat="46.1523" lon="6.33328">
        <ele>532.9</ele>
      </trkpt>
      <trkpt lat="46.15229" lon="6.33313">
        <ele>532.4</ele>
      </trkpt>
      <trkpt lat="46.15227" lon="6.33297">
        <ele>531.9</ele>
      </trkpt>
      <trkpt lat="46.1522" lon="6.33268">
        <ele>531</ele>
      </trkpt>
      <trkpt lat="46.15213" lon="6.33252">
        <ele>530.4</ele>
      </trkpt>
      <trkpt lat="46.15204" lon="6.33238">
        <ele>530.3</ele>
      </trkpt>
      <trkpt lat="46.15192" lon="6.33222">
        <ele>530.2</ele>
      </trkpt>
      <trkpt lat="46.15194" lon="6.33218">
        <ele>530</ele>
      </trkpt>
      <trkpt lat="46.15201" lon="6.33205">
        <ele>529.5</ele>
      </trkpt>
      <trkpt lat="46.15205" lon="6.33197">
        <ele>529.2</ele>
      </trkpt>
      <trkpt lat="46.15207" lon="6.33182">
        <ele>528.9</ele>
      </trkpt>
      <trkpt lat="46.15217" lon="6.33162">
        <ele>528.7</ele>
      </trkpt>
      <trkpt lat="46.15228" lon="6.33141">
        <ele>529.3</ele>
      </trkpt>
      <trkpt lat="46.15258" lon="6.33085">
        <ele>531.8</ele>
      </trkpt>
      <trkpt lat="46.15263" lon="6.33071">
        <ele>532.5</ele>
      </trkpt>
      <trkpt lat="46.15272" lon="6.33032">
        <ele>534.4</ele>
      </trkpt>
    </trkseg>
  </trk>
</gpx>